Time;durP1;ratioP1;P1;durP2;ratioP2;P2;SDS_P1;SDS_P2;PMS_P1;PMS_P2;Temp;Humidity;BMP_temperature;BMP_pressure;BME280_temperature;BME280_humidity;BME280_pressure;Samples;Min_cycle;Max_cycle;Signal;HPM_P1;HPM_P2
2023/12/03 00:02:10;;;;;;;;;;;-0.30;99.90;;;;;;2614630;50;19953;-70
2023/12/03 00:04:40;;;;;;;;;;;-0.30;99.90;;;;;;2615452;54;19942;-70
2023/12/03 00:07:10;;;;;;;;;;;-0.30;99.90;;;;;;2615884;54;20034;-68
2023/12/03 00:09:39;;;;;;;;;;;-0.30;99.90;;;;;;2616723;54;19951;-71
2023/12/03 00:12:09;;;;;;;;;;;-0.30;99.90;;;;;;2613277;39;20345;-69
2023/12/03 00:14:39;;;;;;;;;;;-0.30;99.90;;;;;;2616255;54;19939;-70
2023/12/03 00:17:12;;;;;;;;;;;-0.30;99.90;;;;;;2614182;54;20445;-70
2023/12/03 00:19:42;;;;;;;;;;;-0.40;99.90;;;;;;2615274;39;20366;-69
2023/12/03 00:22:11;;;;;;;;;;;-0.50;99.90;;;;;;2615219;54;19954;-70
2023/12/03 00:24:41;;;;;;;;;;;-0.50;99.90;;;;;;2615099;54;19953;-71
2023/12/03 00:27:10;;;;;;;;;;;-0.60;99.90;;;;;;2610978;47;19946;-69
2023/12/03 00:29:40;;;;;;;;;;;-0.50;99.90;;;;;;2617256;39;20336;-69
2023/12/03 00:32:12;;;;;;;;;;;-0.50;99.90;;;;;;2614526;53;19946;-70
2023/12/03 00:34:42;;;;;;;;;;;-0.50;99.90;;;;;;2615287;54;19950;-70
2023/12/03 00:37:12;;;;;;;;;;;-0.50;99.90;;;;;;2614769;54;19953;-70
2023/12/03 00:39:41;;;;;;;;;;;-0.50;99.90;;;;;;2616192;47;19939;-69
2023/12/03 00:42:11;;;;;;;;;;;-0.50;99.90;;;;;;2614942;39;21791;-70
2023/12/03 00:44:41;;;;;;;;;;;-0.40;99.90;;;;;;2617196;54;19947;-69
2023/12/03 00:47:13;;;;;;;;;;;-0.40;99.90;;;;;;2614982;54;19953;-69
2023/12/03 00:49:42;;;;;;;;;;;-0.40;99.90;;;;;;2616513;47;19951;-69
2023/12/03 00:52:14;;;;;;;;;;;-0.30;99.90;;;;;;2616589;47;19951;-69
2023/12/03 00:54:43;;;;;;;;;;;-0.30;99.90;;;;;;2613577;47;19951;-70
2023/12/03 00:57:13;;;;;;;;;;;-0.20;99.90;;;;;;2615862;46;19946;-71
2023/12/03 00:59:43;;;;;;;;;;;-0.30;99.90;;;;;;2613651;50;20551;-69
2023/12/03 01:02:15;;;;;;;;;;;-0.40;99.90;;;;;;2615914;54;19941;-69
2023/12/03 01:04:45;;;;;;;;;;;-0.40;99.90;;;;;;2614870;54;20559;-69
2023/12/03 01:07:14;;;;;;;;;;;-0.30;99.90;;;;;;2616937;47;19947;-70
2023/12/03 01:09:44;;;;;;;;;;;-0.30;99.90;;;;;;2616943;54;19947;-70
2023/12/03 01:12:14;;;;;;;;;;;-0.30;99.90;;;;;;2614780;54;19950;-70
2023/12/03 01:14:44;;;;;;;;;;;-0.30;99.90;;;;;;2614848;54;19951;-70
2023/12/03 01:17:16;;;;;;;;;;;-0.30;99.90;;;;;;2615780;54;19946;-70
2023/12/03 01:19:45;;;;;;;;;;;-0.30;99.90;;;;;;2615222;54;19953;-70
2023/12/03 01:22:15;;;;;;;;;;;-0.40;99.90;;;;;;2616275;47;19962;-70
2023/12/03 01:24:45;;;;;;;;;;;-0.40;99.90;;;;;;2616434;54;19940;-70
2023/12/03 01:27:15;;;;;;;;;;;-0.50;99.90;;;;;;2615366;47;19946;-69
2023/12/03 01:29:45;;;;;;;;;;;-0.40;99.90;;;;;;2615496;46;19966;-70
2023/12/03 01:32:17;;;;;;;;;;;-0.40;99.90;;;;;;2616850;54;20442;-70
2023/12/03 01:34:46;;;;;;;;;;;-0.40;99.90;;;;;;2615675;54;19942;-70
2023/12/03 01:37:16;;;;;;;;;;;-0.40;99.90;;;;;;2615371;47;19968;-70
2023/12/03 01:39:46;;;;;;;;;;;-0.40;99.90;;;;;;2616418;39;20344;-69
2023/12/03 01:42:16;;;;;;;;;;;-0.40;99.90;;;;;;2613902;54;19950;-69
2023/12/03 01:44:45;;;;;;;;;;;-0.50;99.90;;;;;;2616314;31;20445;-69
2023/12/03 01:47:18;;;;;;;;;;;-0.50;99.90;;;;;;2616424;49;19950;-70
2023/12/03 01:49:47;;;;;;;;;;;-0.50;99.90;;;;;;2615980;54;19950;-69
2023/12/03 01:52:17;;;;;;;;;;;-0.60;99.90;;;;;;2613735;54;19950;-69
2023/12/03 01:54:47;;;;;;;;;;;-0.70;99.90;;;;;;2614231;54;19947;-70
2023/12/03 01:57:17;;;;;;;;;;;-0.60;99.90;;;;;;2615292;54;19970;-69
2023/12/03 01:59:47;;;;;;;;;;;-0.60;99.90;;;;;;2616451;51;19966;-70
2023/12/03 02:02:19;;;;;;;;;;;-0.60;99.90;;;;;;2615240;46;19942;-69
2023/12/03 02:04:50;;;;;;;;;;;-0.60;99.90;;;;;;2614914;54;19950;-70
2023/12/03 02:07:20;;;;;;;;;;;-0.60;99.90;;;;;;2616886;39;20389;-69
2023/12/03 02:09:49;;;;;;;;;;;-0.60;99.90;;;;;;2620306;54;20446;-69
2023/12/03 02:12:19;;;;;;;;;;;-0.60;99.90;;;;;;2620938;47;19970;-70
2023/12/03 02:14:49;;;;;;;;;;;-0.60;99.90;;;;;;2619772;54;20960;-69
2023/12/03 02:17:21;;;;;;;;;;;-0.60;99.90;;;;;;2613861;54;19939;-70
2023/12/03 02:19:51;;;;;;;;;;;-0.70;99.90;;;;;;2615885;39;20437;-69
2023/12/03 02:22:20;;;;;;;;;;;-0.70;99.90;;;;;;2615130;39;20345;-69
2023/12/03 02:24:53;;;;;;;;;;;-1.00;99.90;;;;;;2607509;47;19950;-69
2023/12/03 02:27:22;;;;;;;;;;;-0.60;99.90;;;;;;2615433;54;19953;-69
2023/12/03 03:04:01;;;;;;;;;;;-0.50;99.90;;;;;;2601226;39;21328;-70
2023/12/03 03:06:31;;;;;;;;;;;-0.60;99.90;;;;;;2616014;54;19951;-70
2023/12/03 03:09:00;;;;;;;;;;;-0.60;99.90;;;;;;2615005;54;19955;-69
2023/12/03 03:11:30;;;;;;;;;;;-0.70;99.90;;;;;;2613265;54;19938;-69
2023/12/03 03:14:00;;;;;;;;;;;-0.60;99.90;;;;;;2612041;54;19947;-69
2023/12/03 03:16:29;;;;;;;;;;;-0.80;99.90;;;;;;2616410;54;19934;-69
2023/12/03 03:19:01;;;;;;;;;;;-0.80;99.90;;;;;;2609601;46;19972;-69
2023/12/03 03:21:31;;;;;;;;;;;-0.70;99.90;;;;;;2614957;54;19934;-69
2023/12/03 03:24:01;;;;;;;;;;;-0.70;99.90;;;;;;2615951;54;20058;-70
2023/12/03 03:26:30;;;;;;;;;;;-0.70;99.90;;;;;;2612967;54;19966;-69
2023/12/03 03:29:00;;;;;;;;;;;-0.70;99.90;;;;;;2615537;54;19958;-69
2023/12/03 03:31:30;;;;;;;;;;;-0.60;99.90;;;;;;2613168;47;20460;-69
2023/12/03 03:34:02;;;;;;;;;;;-0.60;99.90;;;;;;2614682;47;19947;-69
2023/12/03 03:36:32;;;;;;;;;;;-0.60;99.90;;;;;;2616501;54;19997;-69
2023/12/03 03:39:02;;;;;;;;;;;-0.60;99.90;;;;;;2614386;47;20433;-68
2023/12/03 03:41:32;;;;;;;;;;;-0.60;99.90;;;;;;2616251;54;19946;-69
2023/12/03 03:44:01;;;;;;;;;;;-0.60;99.90;;;;;;2616418;54;19939;-69
2023/12/03 03:46:31;;;;;;;;;;;-0.70;99.90;;;;;;2617024;54;19935;-69
2023/12/03 03:49:03;;;;;;;;;;;-0.70;99.90;;;;;;2617236;54;20476;-69
2023/12/03 03:51:33;;;;;;;;;;;-0.70;99.90;;;;;;2616621;47;19951;-69
2023/12/03 03:54:03;;;;;;;;;;;-0.60;99.90;;;;;;2616434;47;20433;-69
2023/12/03 03:56:32;;;;;;;;;;;-0.60;99.90;;;;;;2616855;54;20483;-68
2023/12/03 03:59:02;;;;;;;;;;;-0.60;99.90;;;;;;2616134;39;20349;-69
2023/12/03 04:01:32;;;;;;;;;;;-0.60;99.90;;;;;;2615868;47;19969;-69
2023/12/03 04:04:04;;;;;;;;;;;-0.60;99.90;;;;;;2614730;54;20054;-69
2023/12/03 04:06:38;;;;;;;;;;;-0.70;99.90;;;;;;2616874;54;20001;-69
2023/12/03 04:09:09;;;;;;;;;;;-0.60;99.90;;;;;;2618443;39;20349;-69
2023/12/03 04:11:42;;;;;;;;;;;-0.60;99.90;;;;;;2616824;47;19946;-69
2023/12/03 04:14:13;;;;;;;;;;;-0.60;99.90;;;;;;2617041;47;19945;-69
2023/12/03 04:16:42;;;;;;;;;;;-0.50;99.90;;;;;;2617472;54;19947;-69
2023/12/03 04:19:15;;;;;;;;;;;-0.50;99.90;;;;;;2616747;46;19985;-69
2023/12/03 04:21:45;;;;;;;;;;;-0.50;99.90;;;;;;2617138;54;19947;-69
2023/12/03 04:24:15;;;;;;;;;;;-0.50;99.90;;;;;;2617079;54;20519;-69
2023/12/03 04:26:45;;;;;;;;;;;-0.50;99.90;;;;;;2617099;46;19938;-68
2023/12/03 04:29:15;;;;;;;;;;;-0.50;99.90;;;;;;2616518;46;20013;-69
2023/12/03 04:31:44;;;;;;;;;;;-0.50;99.90;;;;;;2617170;54;19934;-69
2023/12/03 04:34:17;;;;;;;;;;;-0.50;99.90;;;;;;2615907;46;19946;-69
2023/12/03 04:36:46;;;;;;;;;;;-0.50;99.90;;;;;;2617614;39;20341;-69
2023/12/03 04:39:16;;;;;;;;;;;-0.50;99.90;;;;;;2617296;47;20448;-69
2023/12/03 04:41:46;;;;;;;;;;;-0.50;99.90;;;;;;2616935;54;19946;-69
2023/12/03 04:44:15;;;;;;;;;;;-0.50;99.90;;;;;;2616099;54;19938;-69
2023/12/03 04:46:45;;;;;;;;;;;-0.50;99.90;;;;;;2617161;54;20038;-70
2023/12/03 04:49:17;;;;;;;;;;;-0.50;99.90;;;;;;2616755;54;19947;-69
2023/12/03 04:51:47;;;;;;;;;;;-0.40;99.90;;;;;;2617082;54;20548;-69
2023/12/03 04:54:17;;;;;;;;;;;-0.50;99.90;;;;;;2617218;54;19953;-69
2023/12/03 04:56:46;;;;;;;;;;;-0.50;99.90;;;;;;2616826;47;19959;-69
2023/12/03 04:59:16;;;;;;;;;;;-0.40;99.90;;;;;;2616938;47;19947;-69
2023/12/03 05:01:46;;;;;;;;;;;-0.50;99.90;;;;;;2616558;54;19947;-69
2023/12/03 05:04:18;;;;;;;;;;;-0.50;99.90;;;;;;2617105;39;20289;-69
2023/12/03 05:06:48;;;;;;;;;;;-0.50;99.90;;;;;;2617399;54;19939;-70
2023/12/03 05:09:18;;;;;;;;;;;-0.60;99.90;;;;;;2617323;54;19969;-69
2023/12/03 05:11:48;;;;;;;;;;;-0.60;99.90;;;;;;2617375;54;19977;-69
2023/12/03 05:14:18;;;;;;;;;;;-0.60;99.90;;;;;;2616715;54;20037;-68
2023/12/03 05:16:47;;;;;;;;;;;-0.60;99.90;;;;;;2617326;54;20440;-69
2023/12/03 05:19:20;;;;;;;;;;;-0.60;99.90;;;;;;2615821;52;20441;-69
2023/12/03 05:21:49;;;;;;;;;;;-0.60;99.90;;;;;;2616159;54;19946;-70
2023/12/03 05:24:19;;;;;;;;;;;-0.60;99.90;;;;;;2617754;47;19950;-69
2023/12/03 05:26:50;;;;;;;;;;;-0.60;99.90;;;;;;2615959;54;19942;-69
2023/12/03 05:29:21;;;;;;;;;;;-0.60;99.90;;;;;;2615876;54;19939;-69
2023/12/03 05:31:51;;;;;;;;;;;-0.60;99.90;;;;;;2617323;47;19938;-70
2023/12/03 05:34:23;;;;;;;;;;;-0.60;99.90;;;;;;2616770;47;19946;-70
2023/12/03 05:36:53;;;;;;;;;;;-0.60;99.90;;;;;;2617029;47;19945;-69
2023/12/03 05:39:23;;;;;;;;;;;-0.60;99.90;;;;;;2616451;54;19946;-69
2023/12/03 05:41:53;;;;;;;;;;;-0.60;99.90;;;;;;2616729;54;20009;-69
2023/12/03 05:44:22;;;;;;;;;;;-0.50;99.90;;;;;;2616299;49;19953;-69
2023/12/03 05:46:52;;;;;;;;;;;-0.50;99.90;;;;;;2617269;54;19946;-69
2023/12/03 05:49:24;;;;;;;;;;;-0.50;99.90;;;;;;2616231;47;19965;-70
2023/12/03 05:51:54;;;;;;;;;;;-0.40;99.90;;;;;;2616572;47;19950;-69
2023/12/03 05:54:24;;;;;;;;;;;-0.40;99.90;;;;;;2617301;47;19996;-69
2023/12/03 05:56:53;;;;;;;;;;;-0.40;99.90;;;;;;2618097;54;19993;-69
2023/12/03 05:59:25;;;;;;;;;;;-0.40;99.90;;;;;;2616369;54;20428;-69
2023/12/03 06:01:55;;;;;;;;;;;-0.60;99.90;;;;;;2616998;54;19943;-70
2023/12/03 06:04:27;;;;;;;;;;;-0.50;99.90;;;;;;2616450;54;19966;-70
2023/12/03 06:06:57;;;;;;;;;;;-0.60;99.90;;;;;;2616944;54;20545;-70
2023/12/03 06:09:26;;;;;;;;;;;-0.60;99.90;;;;;;2616849;49;19945;-70
2023/12/03 06:11:56;;;;;;;;;;;-0.60;99.90;;;;;;2616826;47;19946;-70
2023/12/03 06:14:26;;;;;;;;;;;-0.60;99.90;;;;;;2616848;54;19947;-70
2023/12/03 06:16:55;;;;;;;;;;;-0.60;99.90;;;;;;2617790;39;20614;-70
2023/12/03 06:19:28;;;;;;;;;;;-0.60;99.90;;;;;;2616124;50;19939;-70
2023/12/03 06:21:57;;;;;;;;;;;-0.70;99.90;;;;;;2616532;47;19946;-70
2023/12/03 06:24:27;;;;;;;;;;;-0.80;99.90;;;;;;2616896;54;19984;-69
2023/12/03 06:26:57;;;;;;;;;;;-0.80;99.90;;;;;;2617042;50;19946;-69
2023/12/03 06:29:26;;;;;;;;;;;-0.70;99.90;;;;;;2616284;54;19957;-69
2023/12/03 06:31:56;;;;;;;;;;;-0.70;99.90;;;;;;2616826;47;19938;-70
2023/12/03 06:34:29;;;;;;;;;;;-0.70;99.90;;;;;;2616896;54;20046;-70
2023/12/03 06:36:59;;;;;;;;;;;-0.80;99.90;;;;;;2617795;47;20495;-71
2023/12/03 06:39:29;;;;;;;;;;;-0.90;99.90;;;;;;2617359;47;20030;-71
2023/12/03 06:41:59;;;;;;;;;;;-0.90;99.90;;;;;;2618551;39;20356;-69
2023/12/03 06:44:28;;;;;;;;;;;-0.90;99.90;;;;;;2617640;47;19935;-72
2023/12/03 06:47:12;;;;;;;;;;;-0.90;99.90;;;;;;2618179;47;19947;-71
2023/12/03 06:49:45;;;;;;;;;;;-0.90;99.90;;;;;;2616339;47;19939;-69
2023/12/03 06:52:15;;;;;;;;;;;-0.90;99.90;;;;;;2613707;54;19961;-70
2023/12/03 06:54:44;;;;;;;;;;;-0.90;99.90;;;;;;2616146;54;19985;-69
2023/12/03 06:57:14;;;;;;;;;;;-0.90;99.90;;;;;;2618208;49;19951;-69
2023/12/03 06:59:44;;;;;;;;;;;-0.90;99.90;;;;;;2617048;39;20372;-69
2023/12/03 07:02:14;;;;;;;;;;;-0.90;99.90;;;;;;2616664;47;20463;-70
2023/12/03 07:04:46;;;;;;;;;;;-0.90;99.90;;;;;;2615703;54;19950;-69
2023/12/03 07:07:16;;;;;;;;;;;-0.90;99.90;;;;;;2617303;47;19946;-70
2023/12/03 07:09:45;;;;;;;;;;;-0.90;99.90;;;;;;2617598;54;19970;-71
2023/12/03 07:12:15;;;;;;;;;;;-0.90;99.90;;;;;;2617372;47;19947;-70
2023/12/03 07:14:45;;;;;;;;;;;-0.90;99.90;;;;;;2616928;54;19950;-69
2023/12/03 07:17:15;;;;;;;;;;;-0.90;99.90;;;;;;2616821;47;19947;-69
2023/12/03 07:19:47;;;;;;;;;;;-0.90;99.90;;;;;;2616357;50;19946;-69
2023/12/03 07:22:17;;;;;;;;;;;-0.90;99.90;;;;;;2616357;54;19951;-69
2023/12/03 07:24:47;;;;;;;;;;;-0.80;99.90;;;;;;2612913;47;19953;-68
2023/12/03 07:27:18;;;;;;;;;;;-0.90;99.90;;;;;;2616154;54;19981;-69
2023/12/03 07:29:49;;;;;;;;;;;-0.90;99.90;;;;;;2616352;54;19946;-69
2023/12/03 07:32:18;;;;;;;;;;;-0.90;99.90;;;;;;2616055;54;19935;-70
2023/12/03 07:34:51;;;;;;;;;;;-0.80;99.90;;;;;;2614873;54;19947;-69
2023/12/03 07:37:20;;;;;;;;;;;-0.90;99.90;;;;;;2616799;54;19939;-71
2023/12/03 07:39:50;;;;;;;;;;;-0.90;99.90;;;;;;2615692;47;20536;-69
2023/12/03 07:42:20;;;;;;;;;;;-0.90;99.90;;;;;;2613788;54;19943;-68
2023/12/03 07:44:50;;;;;;;;;;;-0.80;99.90;;;;;;2616004;54;19950;-69
2023/12/03 07:47:20;;;;;;;;;;;-0.80;99.90;;;;;;2613717;54;20015;-70
2023/12/03 07:49:52;;;;;;;;;;;-0.80;99.90;;;;;;2613548;46;19953;-68
2023/12/03 07:52:22;;;;;;;;;;;-0.80;99.90;;;;;;2612271;54;19939;-69
2023/12/03 07:54:52;;;;;;;;;;;-0.80;99.90;;;;;;2614198;54;20058;-70
2023/12/03 07:57:22;;;;;;;;;;;-0.80;99.90;;;;;;2616772;54;19947;-69
2023/12/03 07:59:51;;;;;;;;;;;-0.80;99.90;;;;;;2615944;46;19997;-69
2023/12/03 08:02:21;;;;;;;;;;;-0.70;99.90;;;;;;2616828;39;20365;-69
2023/12/03 08:04:53;;;;;;;;;;;-0.70;99.90;;;;;;2614778;54;19945;-69
2023/12/03 08:07:23;;;;;;;;;;;-0.70;99.90;;;;;;2617234;39;20365;-69
2023/12/03 08:09:54;;;;;;;;;;;-0.70;99.90;;;;;;2616849;49;19946;-69
2023/12/03 08:12:24;;;;;;;;;;;-0.70;99.90;;;;;;2616670;46;19955;-69
2023/12/03 08:14:54;;;;;;;;;;;-0.70;99.90;;;;;;2614875;54;20075;-68
2023/12/03 08:17:23;;;;;;;;;;;-0.60;99.90;;;;;;2616252;54;19946;-68
2023/12/03 08:19:56;;;;;;;;;;;-0.60;99.90;;;;;;2614815;47;19972;-68
2023/12/03 08:22:25;;;;;;;;;;;-0.50;99.90;;;;;;2617386;47;19946;-68
2023/12/03 08:24:55;;;;;;;;;;;-0.50;99.90;;;;;;2616938;47;19951;-69
2023/12/03 08:27:25;;;;;;;;;;;-0.50;99.90;;;;;;2616348;47;19945;-69
2023/12/03 08:29:54;;;;;;;;;;;-0.40;99.90;;;;;;2615931;54;20001;-70
2023/12/03 08:32:24;;;;;;;;;;;-0.40;99.90;;;;;;2617215;46;19953;-69
2023/12/03 08:34:57;;;;;;;;;;;-0.40;99.90;;;;;;2616160;54;19953;-69
2023/12/03 08:37:26;;;;;;;;;;;-0.40;99.90;;;;;;2615848;54;20885;-70
2023/12/03 08:39:56;;;;;;;;;;;-0.40;99.90;;;;;;2616468;47;19956;-69
2023/12/03 08:42:26;;;;;;;;;;;-0.30;99.90;;;;;;2615186;47;19954;-69
2023/12/03 08:44:55;;;;;;;;;;;-0.30;99.90;;;;;;2615416;54;19954;-70
2023/12/03 08:47:25;;;;;;;;;;;-0.20;99.90;;;;;;2617739;39;20360;-69
2023/12/03 08:49:58;;;;;;;;;;;-0.20;99.90;;;;;;2616309;54;19946;-69
2023/12/03 08:52:27;;;;;;;;;;;-0.10;99.90;;;;;;2617809;54;20041;-69
2023/12/03 08:54:57;;;;;;;;;;;-0.10;99.90;;;;;;2617537;54;19958;-70
2023/12/03 08:57:27;;;;;;;;;;;-0.20;99.90;;;;;;2617328;54;19965;-69
2023/12/03 08:59:57;;;;;;;;;;;-0.10;99.90;;;;;;2616887;54;19951;-69
2023/12/03 09:02:26;;;;;;;;;;;-0.10;99.90;;;;;;2617886;39;20365;-69
2023/12/03 09:04:59;;;;;;;;;;;-0.20;99.90;;;;;;2618009;54;19950;-72
2023/12/03 09:07:30;;;;;;;;;;;-0.20;99.90;;;;;;2619090;54;19942;-71
2023/12/03 09:10:00;;;;;;;;;;;-0.30;99.90;;;;;;2617074;47;19945;-69
2023/12/03 09:12:30;;;;;;;;;;;-0.30;99.90;;;;;;2617729;46;19943;-68
2023/12/03 09:15:00;;;;;;;;;;;-0.20;99.90;;;;;;2617357;54;19997;-69
2023/12/03 09:17:31;;;;;;;;;;;-0.10;99.90;;;;;;2618225;54;19957;-69
2023/12/03 09:20:05;;;;;;;;;;;-0.20;99.90;;;;;;2618625;39;20334;-69
2023/12/03 09:22:34;;;;;;;;;;;-0.20;99.90;;;;;;2617826;47;20045;-70
2023/12/03 09:25:05;;;;;;;;;;;-0.20;99.90;;;;;;2617372;54;19942;-69
2023/12/03 09:27:35;;;;;;;;;;;-0.20;99.90;;;;;;2616062;54;19968;-69
2023/12/03 09:30:05;;;;;;;;;;;-0.20;99.90;;;;;;2617167;47;20046;-70
2023/12/03 09:32:35;;;;;;;;;;;-0.10;99.90;;;;;;2617622;54;19946;-70
2023/12/03 09:35:07;;;;;;;;;;;-0.10;99.90;;;;;;2617018;47;19987;-69
2023/12/03 09:37:37;;;;;;;;;;;0.00;99.90;;;;;;2616672;54;20452;-69
2023/12/03 09:40:07;;;;;;;;;;;0.00;99.90;;;;;;2616721;54;19950;-69
2023/12/03 09:42:39;;;;;;;;;;;0.10;99.90;;;;;;2616853;54;20051;-70
2023/12/03 09:45:11;;;;;;;;;;;0.10;99.90;;;;;;2617013;54;20026;-70
2023/12/03 09:47:42;;;;;;;;;;;0.20;99.90;;;;;;2616726;54;19953;-69
2023/12/03 09:50:14;;;;;;;;;;;0.20;99.90;;;;;;2617162;54;19946;-70
2023/12/03 09:52:45;;;;;;;;;;;0.20;99.90;;;;;;2616132;54;19946;-70
2023/12/03 09:55:15;;;;;;;;;;;0.30;99.90;;;;;;2616111;54;20054;-69
2023/12/03 09:57:47;;;;;;;;;;;0.30;99.90;;;;;;2616098;54;19939;-69
2023/12/03 10:00:17;;;;;;;;;;;0.30;99.90;;;;;;2618052;54;20456;-70
2023/12/03 10:02:47;;;;;;;;;;;0.30;99.90;;;;;;2617279;54;20002;-69
2023/12/03 10:05:19;;;;;;;;;;;0.40;99.90;;;;;;2616237;54;20009;-70
2023/12/03 10:07:50;;;;;;;;;;;0.40;99.90;;;;;;2618123;47;20464;-69
2023/12/03 10:10:20;;;;;;;;;;;0.40;99.90;;;;;;2618090;47;19976;-70
2023/12/03 10:12:51;;;;;;;;;;;0.40;99.90;;;;;;2619387;47;19946;-71
2023/12/03 10:15:21;;;;;;;;;;;0.40;99.90;;;;;;2617810;54;19960;-69
2023/12/03 10:17:52;;;;;;;;;;;0.70;99.90;;;;;;2615618;47;19943;-69
2023/12/03 10:20:28;;;;;;;;;;;0.60;99.90;;;;;;2616849;54;19969;-69
2023/12/03 10:23:00;;;;;;;;;;;0.60;99.90;;;;;;2617141;54;19938;-70
2023/12/03 10:25:31;;;;;;;;;;;0.70;99.90;;;;;;2617438;47;19954;-70
2023/12/03 10:28:02;;;;;;;;;;;0.70;99.90;;;;;;2616621;54;19947;-70
2023/12/03 10:30:32;;;;;;;;;;;0.80;99.90;;;;;;2615860;50;19946;-68
2023/12/03 10:33:04;;;;;;;;;;;0.80;99.90;;;;;;2617632;49;19971;-69
2023/12/03 10:35:37;;;;;;;;;;;0.90;99.90;;;;;;2617048;54;19950;-69
2023/12/03 10:38:07;;;;;;;;;;;0.90;99.90;;;;;;2617390;54;19950;-69
2023/12/03 10:40:37;;;;;;;;;;;1.00;99.90;;;;;;2616636;54;20508;-69
2023/12/03 10:43:07;;;;;;;;;;;1.00;99.90;;;;;;2616981;54;19985;-70
2023/12/03 10:45:37;;;;;;;;;;;1.10;99.90;;;;;;2617560;47;19939;-69
2023/12/03 10:48:07;;;;;;;;;;;1.10;99.90;;;;;;2617918;54;19961;-69
2023/12/03 10:50:43;;;;;;;;;;;1.30;99.90;;;;;;2617859;39;20361;-71
2023/12/03 10:53:13;;;;;;;;;;;1.30;99.90;;;;;;2617097;54;19946;-69
2023/12/03 10:55:43;;;;;;;;;;;1.50;99.90;;;;;;2617358;54;19953;-69
2023/12/03 10:58:10;;;;;;;;;;;1.60;99.90;;;;;;2615973;54;19939;-71
2023/12/03 11:00:41;;;;;;;;;;;1.80;99.90;;;;;;2614587;47;19950;-70
2023/12/03 11:03:16;;;;;;;;;;;1.90;99.90;;;;;;2616091;54;19950;-69
2023/12/03 11:05:52;;;;;;;;;;;1.90;99.90;;;;;;2611586;54;19961;-70
2023/12/03 11:08:23;;;;;;;;;;;2.00;99.90;;;;;;2615460;54;19997;-70
2023/12/03 11:10:53;;;;;;;;;;;2.00;99.90;;;;;;2616985;47;19958;-72
2023/12/03 11:13:24;;;;;;;;;;;1.90;99.90;;;;;;2616982;47;20035;-72
2023/12/03 11:16:10;;;;;;;;;;;2.00;99.90;;;;;;2617020;47;19972;-72
2023/12/03 11:18:42;;;;;;;;;;;2.00;99.90;;;;;;2616229;47;19938;-71
2023/12/03 11:21:16;;;;;;;;;;;2.00;99.90;;;;;;2617536;47;20470;-72
2023/12/03 11:23:57;;;;;;;;;;;1.80;99.90;;;;;;2616440;54;19938;-72
2023/12/03 11:26:26;;;;;;;;;;;1.90;99.90;;;;;;2617391;47;19938;-72
2023/12/03 11:28:57;;;;;;;;;;;1.90;99.90;;;;;;2615662;47;19946;-72
2023/12/03 11:31:27;;;;;;;;;;;1.90;99.90;;;;;;2616570;47;19954;-71
2023/12/03 11:33:58;;;;;;;;;;;2.00;99.90;;;;;;2616501;47;19951;-71
2023/12/03 11:36:39;;;;;;;;;;;2.00;99.90;;;;;;2618556;54;19959;-70
2023/12/03 11:39:08;;;;;;;;;;;2.10;99.90;;;;;;2618382;47;19977;-70
2023/12/03 11:41:39;;;;;;;;;;;2.10;99.90;;;;;;2616355;54;19953;-69
2023/12/03 11:44:21;;;;;;;;;;;2.10;99.90;;;;;;2621861;54;19953;-72
2023/12/03 11:46:52;;;;;;;;;;;2.20;99.90;;;;;;2621104;47;19938;-72
2023/12/03 11:49:24;;;;;;;;;;;2.20;99.90;;;;;;2616085;54;19939;-71
2023/12/03 11:51:56;;;;;;;;;;;2.20;99.90;;;;;;2614701;47;19954;-71
2023/12/03 11:54:27;;;;;;;;;;;0.80;99.90;;;;;;2616078;47;19958;-73
2023/12/03 11:56:57;;;;;;;;;;;2.30;99.90;;;;;;2615009;47;20001;-71
2023/12/03 11:59:27;;;;;;;;;;;2.50;99.90;;;;;;2615605;54;19939;-75
2023/12/03 12:01:57;;;;;;;;;;;2.40;99.90;;;;;;2613915;47;19954;-73
2023/12/03 12:04:27;;;;;;;;;;;2.50;99.90;;;;;;2615684;47;19947;-72
2023/12/03 12:06:59;;;;;;;;;;;2.50;99.90;;;;;;2616044;54;19946;-71
2023/12/03 12:09:29;;;;;;;;;;;2.50;99.90;;;;;;2616197;54;19954;-74
2023/12/03 12:11:59;;;;;;;;;;;2.60;99.90;;;;;;2613137;47;19954;-72
2023/12/03 12:14:29;;;;;;;;;;;2.60;99.90;;;;;;2616003;50;19954;-71
2023/12/03 12:16:58;;;;;;;;;;;2.60;99.90;;;;;;2615549;47;20484;-71
2023/12/03 12:19:28;;;;;;;;;;;2.50;99.90;;;;;;2616516;39;20457;-73
2023/12/03 12:22:00;;;;;;;;;;;1.40;99.90;;;;;;2617439;47;19951;-71
2023/12/03 12:24:30;;;;;;;;;;;2.40;99.90;;;;;;2620481;47;19934;-72
2023/12/03 12:27:00;;;;;;;;;;;2.50;99.90;;;;;;2618392;54;19946;-72
2023/12/03 12:29:30;;;;;;;;;;;2.40;99.90;;;;;;2617375;54;20058;-72
2023/12/03 12:32:01;;;;;;;;;;;2.50;99.90;;;;;;2615778;47;19997;-71
2023/12/03 12:34:32;;;;;;;;;;;2.40;99.90;;;;;;2616370;47;19941;-72
2023/12/03 12:37:08;;;;;;;;;;;2.50;99.90;;;;;;2616737;39;20137;-73
2023/12/03 12:39:38;;;;;;;;;;;2.50;99.90;;;;;;2616227;54;20061;-71
2023/12/03 12:42:08;;;;;;;;;;;2.50;99.90;;;;;;2616418;39;20368;-72
2023/12/03 12:44:42;;;;;;;;;;;2.60;99.90;;;;;;2615884;46;19966;-71
2023/12/03 12:47:18;;;;;;;;;;;2.60;99.90;;;;;;2616255;47;19950;-75
2023/12/03 12:49:57;;;;;;;;;;;2.70;99.90;;;;;;2615276;54;19961;-74
2023/12/03 12:52:32;;;;;;;;;;;2.70;99.90;;;;;;2616470;54;20038;-74
2023/12/03 12:55:03;;;;;;;;;;;2.80;99.90;;;;;;2617319;47;20563;-72
2023/12/03 12:57:39;;;;;;;;;;;2.80;99.90;;;;;;2616314;47;19938;-72
2023/12/03 13:00:10;;;;;;;;;;;2.80;99.90;;;;;;2622159;47;19947;-77
2023/12/03 13:02:40;;;;;;;;;;;2.90;99.90;;;;;;2621152;47;19958;-76
2023/12/03 13:05:10;;;;;;;;;;;2.90;99.90;;;;;;2617993;47;19950;-75
2023/12/03 13:07:43;;;;;;;;;;;2.90;99.90;;;;;;2619296;47;19950;-76
2023/12/03 13:10:12;;;;;;;;;;;2.90;99.90;;;;;;2618441;47;19950;-75
2023/12/03 13:12:43;;;;;;;;;;;3.20;99.90;;;;;;2616548;47;19939;-76
2023/12/03 13:15:13;;;;;;;;;;;2.90;99.90;;;;;;2616585;54;20361;-71
2023/12/03 13:17:50;;;;;;;;;;;2.90;99.90;;;;;;2619142;39;20307;-71
2023/12/03 13:20:19;;;;;;;;;;;2.90;99.90;;;;;;2614725;47;19978;-70
2023/12/03 13:22:50;;;;;;;;;;;2.80;99.90;;;;;;2616260;54;19946;-73
2023/12/03 13:25:20;;;;;;;;;;;2.90;99.90;;;;;;2616241;54;20038;-71
2023/12/03 13:27:50;;;;;;;;;;;2.90;99.90;;;;;;2616119;39;20356;-72
2023/12/03 13:30:19;;;;;;;;;;;2.80;99.90;;;;;;2614502;46;19962;-74
2023/12/03 13:32:50;;;;;;;;;;;2.90;99.90;;;;;;2615775;47;19955;-72
2023/12/03 13:35:20;;;;;;;;;;;3.00;99.90;;;;;;2615603;47;19962;-73
2023/12/03 13:37:53;;;;;;;;;;;3.00;99.90;;;;;;2615922;46;20094;-72
2023/12/03 13:40:23;;;;;;;;;;;3.00;99.90;;;;;;2614274;47;20824;-72
2023/12/03 13:42:53;;;;;;;;;;;3.00;99.90;;;;;;2615949;54;19938;-70
2023/12/03 13:45:23;;;;;;;;;;;3.10;99.90;;;;;;2614531;47;19950;-71
2023/12/03 13:47:53;;;;;;;;;;;3.10;99.90;;;;;;2610882;47;19970;-70
2023/12/03 13:50:22;;;;;;;;;;;3.10;99.90;;;;;;2614397;39;20057;-70
2023/12/03 13:52:55;;;;;;;;;;;3.10;99.90;;;;;;2616637;54;19970;-70
2023/12/03 13:55:26;;;;;;;;;;;3.10;99.90;;;;;;2611457;54;19946;-69
2023/12/03 13:57:56;;;;;;;;;;;3.10;99.90;;;;;;2614073;47;19939;-71
2023/12/03 14:00:25;;;;;;;;;;;3.00;99.90;;;;;;2614103;54;19951;-70
2023/12/03 14:02:55;;;;;;;;;;;3.00;99.90;;;;;;2614494;54;20002;-69
2023/12/03 14:05:25;;;;;;;;;;;3.00;99.90;;;;;;2615863;54;19947;-69
2023/12/03 14:07:58;;;;;;;;;;;3.00;99.90;;;;;;2615530;47;19974;-69
2023/12/03 14:10:29;;;;;;;;;;;3.00;99.90;;;;;;2615146;54;20453;-71
2023/12/03 14:12:59;;;;;;;;;;;3.00;99.90;;;;;;2615644;39;20341;-70
2023/12/03 14:15:29;;;;;;;;;;;2.90;99.90;;;;;;2615535;54;19950;-72
2023/12/03 14:17:59;;;;;;;;;;;2.90;99.90;;;;;;2613954;47;20038;-70
2023/12/03 14:20:28;;;;;;;;;;;2.90;99.90;;;;;;2612362;46;19954;-69
2023/12/03 14:23:01;;;;;;;;;;;2.90;99.90;;;;;;2614410;54;19958;-71
2023/12/03 14:25:31;;;;;;;;;;;3.00;99.90;;;;;;2612540;54;19954;-72
2023/12/03 14:28:00;;;;;;;;;;;2.90;99.90;;;;;;2615311;54;19946;-70
2023/12/03 14:30:30;;;;;;;;;;;3.00;99.90;;;;;;2613830;50;19954;-71
2023/12/03 14:33:00;;;;;;;;;;;3.00;99.90;;;;;;2614050;54;19939;-69
2023/12/03 14:35:30;;;;;;;;;;;3.10;99.90;;;;;;2612918;47;19938;-71
2023/12/03 14:38:02;;;;;;;;;;;3.10;99.90;;;;;;2614532;54;19973;-73
2023/12/03 14:40:32;;;;;;;;;;;3.10;99.90;;;;;;2613702;47;19954;-70
2023/12/03 14:43:03;;;;;;;;;;;3.10;99.90;;;;;;2615217;47;20433;-69
2023/12/03 14:45:33;;;;;;;;;;;3.10;99.90;;;;;;2616403;54;19946;-71
2023/12/03 14:48:03;;;;;;;;;;;3.10;99.90;;;;;;2615961;47;19969;-71
2023/12/03 14:50:33;;;;;;;;;;;3.00;99.90;;;;;;2615858;47;19946;-72
2023/12/03 14:53:05;;;;;;;;;;;3.00;99.90;;;;;;2614688;54;20034;-70
2023/12/03 14:55:35;;;;;;;;;;;3.00;99.90;;;;;;2614271;47;19958;-70
2023/12/03 14:58:05;;;;;;;;;;;2.90;99.90;;;;;;2614757;54;19946;-71
2023/12/03 15:00:35;;;;;;;;;;;2.80;99.90;;;;;;2616269;47;20445;-72
2023/12/03 15:03:05;;;;;;;;;;;2.70;99.90;;;;;;2614597;54;20030;-84
2023/12/03 15:05:35;;;;;;;;;;;2.70;99.90;;;;;;2630323;47;19942;-83
2023/12/03 15:08:08;;;;;;;;;;;2.70;99.90;;;;;;2630294;47;19942;-83
2023/12/03 15:10:38;;;;;;;;;;;1.10;99.90;;;;;;2627968;54;19954;-81
2023/12/03 15:13:08;;;;;;;;;;;2.60;99.90;;;;;;2620088;39;20436;-78
2023/12/03 15:15:38;;;;;;;;;;;2.50;99.90;;;;;;2622160;47;19950;-78